sensor_id;sensor_type;location;lat;lon;timestamp;temperature;humidity
71082;SHT31;58740;50.672;18.690;2023-01-19T00:01:40;1.05;81.67
71082;SHT31;58740;50.672;18.690;2023-01-19T00:04:08;1.05;81.82
71082;SHT31;58740;50.672;18.690;2023-01-19T00:06:36;1.03;81.96
71082;SHT31;58740;50.672;18.690;2023-01-19T00:09:03;1.04;81.91
71082;SHT31;58740;50.672;18.690;2023-01-19T00:11:31;1.07;81.85
71082;SHT31;58740;50.672;18.690;2023-01-19T00:13:59;1.11;81.57
71082;SHT31;58740;50.672;18.690;2023-01-19T00:16:26;1.07;81.26
71082;SHT31;58740;50.672;18.690;2023-01-19T00:18:56;1.02;81.36
71082;SHT31;58740;50.672;18.690;2023-01-19T00:21:24;0.99;81.36
71082;SHT31;58740;50.672;18.690;2023-01-19T00:23:52;0.95;81.46
71082;SHT31;58740;50.672;18.690;2023-01-19T00:26:20;0.92;81.54
71082;SHT31;58740;50.672;18.690;2023-01-19T00:28:49;0.90;81.57
71082;SHT31;58740;50.672;18.690;2023-01-19T00:31:19;0.91;81.37
71082;SHT31;58740;50.672;18.690;2023-01-19T00:33:48;0.93;81.47
71082;SHT31;58740;50.672;18.690;2023-01-19T00:36:18;0.95;81.31
71082;SHT31;58740;50.672;18.690;2023-01-19T00:38:46;0.94;81.30
71082;SHT31;58740;50.672;18.690;2023-01-19T00:41:14;0.94;81.27
71082;SHT31;58740;50.672;18.690;2023-01-19T00:43:42;0.89;81.30
71082;SHT31;58740;50.672;18.690;2023-01-19T00:46:09;0.84;81.63
71082;SHT31;58740;50.672;18.690;2023-01-19T00:48:37;0.81;81.78
71082;SHT31;58740;50.672;18.690;2023-01-19T00:51:05;0.82;81.76
71082;SHT31;58740;50.672;18.690;2023-01-19T00:53:33;0.80;81.63
71082;SHT31;58740;50.672;18.690;2023-01-19T00:56:00;0.82;81.74
71082;SHT31;58740;50.672;18.690;2023-01-19T00:58:31;0.88;81.62
71082;SHT31;58740;50.672;18.690;2023-01-19T01:00:58;0.93;81.35
71082;SHT31;58740;50.672;18.690;2023-01-19T01:03:31;0.95;81.17
71082;SHT31;58740;50.672;18.690;2023-01-19T01:05:59;0.91;81.07
71082;SHT31;58740;50.672;18.690;2023-01-19T01:08:27;0.86;81.07
71082;SHT31;58740;50.672;18.690;2023-01-19T01:10:55;0.80;81.19
71082;SHT31;58740;50.672;18.690;2023-01-19T01:13:23;0.76;81.35
71082;SHT31;58740;50.672;18.690;2023-01-19T01:15:55;0.75;81.36
71082;SHT31;58740;50.672;18.690;2023-01-19T01:18:23;0.75;81.13
71082;SHT31;58740;50.672;18.690;2023-01-19T01:20:58;0.73;81.25
71082;SHT31;58740;50.672;18.690;2023-01-19T01:23:28;0.72;81.37
71082;SHT31;58740;50.672;18.690;2023-01-19T01:25:56;0.75;81.43
71082;SHT31;58740;50.672;18.690;2023-01-19T01:28:24;0.77;81.24
71082;SHT31;58740;50.672;18.690;2023-01-19T01:30:55;0.73;81.21
71082;SHT31;58740;50.672;18.690;2023-01-19T01:33:23;0.68;81.46
71082;SHT31;58740;50.672;18.690;2023-01-19T01:36:09;0.67;81.54
71082;SHT31;58740;50.672;18.690;2023-01-19T01:38:39;0.69;81.58
71082;SHT31;58740;50.672;18.690;2023-01-19T01:41:10;0.72;81.45
71082;SHT31;58740;50.672;18.690;2023-01-19T01:46:16;0.75;81.24
71082;SHT31;58740;50.672;18.690;2023-01-19T01:51:33;0.73;81.57
71082;SHT31;58740;50.672;18.690;2023-01-19T01:54:19;0.76;81.45
71082;SHT31;58740;50.672;18.690;2023-01-19T01:56:56;0.76;81.27
71082;SHT31;58740;50.672;18.690;2023-01-19T01:59:34;0.73;81.30
71082;SHT31;58740;50.672;18.690;2023-01-19T02:02:10;0.70;81.28
71082;SHT31;58740;50.672;18.690;2023-01-19T02:05:09;0.68;81.37
71082;SHT31;58740;50.672;18.690;2023-01-19T02:07:57;0.68;81.40
71082;SHT31;58740;50.672;18.690;2023-01-19T02:10:53;0.68;81.51
71082;SHT31;58740;50.672;18.690;2023-01-19T02:13:40;0.69;81.53
71082;SHT31;58740;50.672;18.690;2023-01-19T02:16:13;0.71;81.50
71082;SHT31;58740;50.672;18.690;2023-01-19T02:18:45;0.74;81.29
71082;SHT31;58740;50.672;18.690;2023-01-19T02:21:18;0.73;81.11
71082;SHT31;58740;50.672;18.690;2023-01-19T02:23:57;0.67;81.13
71082;SHT31;58740;50.672;18.690;2023-01-19T02:26:33;0.65;81.32
71082;SHT31;58740;50.672;18.690;2023-01-19T02:31:41;0.66;81.41
71082;SHT31;58740;50.672;18.690;2023-01-19T02:34:09;0.67;81.60
71082;SHT31;58740;50.672;18.690;2023-01-19T02:36:47;0.73;81.43
71082;SHT31;58740;50.672;18.690;2023-01-19T02:39:29;0.75;81.20
71082;SHT31;58740;50.672;18.690;2023-01-19T02:42:04;0.75;81.31
71082;SHT31;58740;50.672;18.690;2023-01-19T02:44:38;0.74;81.66
71082;SHT31;58740;50.672;18.690;2023-01-19T02:47:11;0.74;81.64
71082;SHT31;58740;50.672;18.690;2023-01-19T02:49:40;0.71;81.44
71082;SHT31;58740;50.672;18.690;2023-01-19T02:52:13;0.67;81.60
71082;SHT31;58740;50.672;18.690;2023-01-19T02:54:50;0.69;81.59
71082;SHT31;58740;50.672;18.690;2023-01-19T03:06:02;0.74;81.80
71082;SHT31;58740;50.672;18.690;2023-01-19T03:08:54;0.76;81.94
71082;SHT31;58740;50.672;18.690;2023-01-19T03:11:37;0.77;81.84
71082;SHT31;58740;50.672;18.690;2023-01-19T03:14:13;0.78;82.20
71082;SHT31;58740;50.672;18.690;2023-01-19T03:16:55;0.83;82.24
71082;SHT31;58740;50.672;18.690;2023-01-19T03:19:31;0.88;82.12
71082;SHT31;58740;50.672;18.690;2023-01-19T03:22:05;0.89;82.00
71082;SHT31;58740;50.672;18.690;2023-01-19T03:24:41;0.90;82.13
71082;SHT31;58740;50.672;18.690;2023-01-19T03:27:14;0.95;82.15
71082;SHT31;58740;50.672;18.690;2023-01-19T03:29:59;1.01;82.06
71082;SHT31;58740;50.672;18.690;2023-01-19T03:32:38;1.04;82.07
71082;SHT31;58740;50.672;18.690;2023-01-19T03:35:18;1.05;82.10
71082;SHT31;58740;50.672;18.690;2023-01-19T03:37:53;1.05;82.12
71082;SHT31;58740;50.672;18.690;2023-01-19T03:40:28;1.05;82.14
71082;SHT31;58740;50.672;18.690;2023-01-19T03:42:59;1.07;82.29
71082;SHT31;58740;50.672;18.690;2023-01-19T03:45:30;1.11;82.30
71082;SHT31;58740;50.672;18.690;2023-01-19T03:48:02;1.15;82.30
71082;SHT31;58740;50.672;18.690;2023-01-19T03:50:32;1.21;82.33
71082;SHT31;58740;50.672;18.690;2023-01-19T03:53:10;1.26;82.16
71082;SHT31;58740;50.672;18.690;2023-01-19T03:55:42;1.30;82.09
71082;SHT31;58740;50.672;18.690;2023-01-19T03:58:13;1.31;82.02
71082;SHT31;58740;50.672;18.690;2023-01-19T04:00:41;1.31;81.91
71082;SHT31;58740;50.672;18.690;2023-01-19T04:03:11;1.28;82.03
71082;SHT31;58740;50.672;18.690;2023-01-19T04:05:42;1.27;82.09
71082;SHT31;58740;50.672;18.690;2023-01-19T04:08:11;1.24;82.14
71082;SHT31;58740;50.672;18.690;2023-01-19T04:10:39;1.24;82.20
71082;SHT31;58740;50.672;18.690;2023-01-19T04:13:07;1.26;82.24
71082;SHT31;58740;50.672;18.690;2023-01-19T04:15:35;1.29;82.22
71082;SHT31;58740;50.672;18.690;2023-01-19T04:18:03;1.31;82.11
71082;SHT31;58740;50.672;18.690;2023-01-19T04:20:31;1.29;82.07
71082;SHT31;58740;50.672;18.690;2023-01-19T04:23:00;1.27;82.19
71082;SHT31;58740;50.672;18.690;2023-01-19T04:25:28;1.28;82.12
71082;SHT31;58740;50.672;18.690;2023-01-19T04:27:56;1.29;82.05
71082;SHT31;58740;50.672;18.690;2023-01-19T04:30:24;1.29;82.07
71082;SHT31;58740;50.672;18.690;2023-01-19T04:32:54;1.31;82.11
71082;SHT31;58740;50.672;18.690;2023-01-19T04:35:22;1.32;82.11
71082;SHT31;58740;50.672;18.690;2023-01-19T04:37:50;1.35;82.10
71082;SHT31;58740;50.672;18.690;2023-01-19T04:40:18;1.36;82.09
71082;SHT31;58740;50.672;18.690;2023-01-19T04:42:46;1.38;82.01
71082;SHT31;58740;50.672;18.690;2023-01-19T04:45:14;1.38;82.00
71082;SHT31;58740;50.672;18.690;2023-01-19T04:47:42;1.36;82.04
71082;SHT31;58740;50.672;18.690;2023-01-19T04:50:10;1.35;82.02
71082;SHT31;58740;50.672;18.690;2023-01-19T04:52:38;1.34;82.06
71082;SHT31;58740;50.672;18.690;2023-01-19T04:55:05;1.33;82.17
71082;SHT31;58740;50.672;18.690;2023-01-19T04:57:34;1.37;82.13
71082;SHT31;58740;50.672;18.690;2023-01-19T05:00:03;1.40;82.03
71082;SHT31;58740;50.672;18.690;2023-01-19T05:02:33;1.40;81.98
71082;SHT31;58740;50.672;18.690;2023-01-19T05:05:03;1.40;81.90
71082;SHT31;58740;50.672;18.690;2023-01-19T05:07:31;1.39;81.83
71082;SHT31;58740;50.672;18.690;2023-01-19T05:09:59;1.37;81.89
71082;SHT31;58740;50.672;18.690;2023-01-19T05:12:27;1.36;81.92
71082;SHT31;58740;50.672;18.690;2023-01-19T05:14:55;1.36;81.93
71082;SHT31;58740;50.672;18.690;2023-01-19T05:17:23;1.38;81.89
71082;SHT31;58740;50.672;18.690;2023-01-19T05:19:50;1.41;81.86
71082;SHT31;58740;50.672;18.690;2023-01-19T05:22:18;1.42;81.80
71082;SHT31;58740;50.672;18.690;2023-01-19T05:24:46;1.39;81.81
71082;SHT31;58740;50.672;18.690;2023-01-19T05:27:14;1.35;81.94
71082;SHT31;58740;50.672;18.690;2023-01-19T05:29:41;1.33;81.92
71082;SHT31;58740;50.672;18.690;2023-01-19T05:32:09;1.32;81.94
71082;SHT31;58740;50.672;18.690;2023-01-19T05:34:37;1.33;81.94
71082;SHT31;58740;50.672;18.690;2023-01-19T05:37:05;1.34;81.94
71082;SHT31;58740;50.672;18.690;2023-01-19T05:39:33;1.37;81.90
71082;SHT31;58740;50.672;18.690;2023-01-19T05:42:01;1.37;81.94
71082;SHT31;58740;50.672;18.690;2023-01-19T05:44:29;1.38;81.83
71082;SHT31;58740;50.672;18.690;2023-01-19T05:46:56;1.37;81.86
71082;SHT31;58740;50.672;18.690;2023-01-19T05:49:24;1.36;81.87
71082;SHT31;58740;50.672;18.690;2023-01-19T05:51:52;1.34;81.90
71082;SHT31;58740;50.672;18.690;2023-01-19T05:54:20;1.32;81.99
71082;SHT31;58740;50.672;18.690;2023-01-19T05:56:48;1.30;82.05
71082;SHT31;58740;50.672;18.690;2023-01-19T05:59:17;1.31;82.06
71082;SHT31;58740;50.672;18.690;2023-01-19T06:01:50;1.34;82.11
71082;SHT31;58740;50.672;18.690;2023-01-19T06:04:20;1.36;82.04
71082;SHT31;58740;50.672;18.690;2023-01-19T06:06:48;1.37;82.11
71082;SHT31;58740;50.672;18.690;2023-01-19T06:09:17;1.38;82.05
71082;SHT31;58740;50.672;18.690;2023-01-19T06:11:45;1.38;82.04
71082;SHT31;58740;50.672;18.690;2023-01-19T06:14:13;1.40;82.02
71082;SHT31;58740;50.672;18.690;2023-01-19T06:16:41;1.40;82.02
71082;SHT31;58740;50.672;18.690;2023-01-19T06:19:09;1.42;81.99
71082;SHT31;58740;50.672;18.690;2023-01-19T06:21:37;1.41;82.06
71082;SHT31;58740;50.672;18.690;2023-01-19T06:24:05;1.42;82.12
71082;SHT31;58740;50.672;18.690;2023-01-19T06:26:32;1.42;82.13
71082;SHT31;58740;50.672;18.690;2023-01-19T06:29:00;1.41;82.16
71082;SHT31;58740;50.672;18.690;2023-01-19T06:31:28;1.39;82.19
71082;SHT31;58740;50.672;18.690;2023-01-19T06:33:56;1.36;82.28
71082;SHT31;58740;50.672;18.690;2023-01-19T06:36:23;1.32;82.34
71082;SHT31;58740;50.672;18.690;2023-01-19T06:38:51;1.30;82.42
71082;SHT31;58740;50.672;18.690;2023-01-19T06:41:19;1.30;82.51
71082;SHT31;58740;50.672;18.690;2023-01-19T06:43:47;1.32;82.56
71082;SHT31;58740;50.672;18.690;2023-01-19T06:46:15;1.34;82.58
71082;SHT31;58740;50.672;18.690;2023-01-19T06:48:43;1.34;82.57
71082;SHT31;58740;50.672;18.690;2023-01-19T06:51:11;1.33;82.68
71082;SHT31;58740;50.672;18.690;2023-01-19T06:53:39;1.31;82.76
71082;SHT31;58740;50.672;18.690;2023-01-19T06:56:07;1.29;82.83
71082;SHT31;58740;50.672;18.690;2023-01-19T06:58:36;1.29;82.85
71082;SHT31;58740;50.672;18.690;2023-01-19T07:01:04;1.28;82.99
71082;SHT31;58740;50.672;18.690;2023-01-19T07:03:33;1.30;83.05
71082;SHT31;58740;50.672;18.690;2023-01-19T07:06:04;1.32;83.11
71082;SHT31;58740;50.672;18.690;2023-01-19T07:08:35;1.34;83.14
71082;SHT31;58740;50.672;18.690;2023-01-19T07:11:07;1.35;83.23
71082;SHT31;58740;50.672;18.690;2023-01-19T07:13:58;1.33;83.30
71082;SHT31;58740;50.672;18.690;2023-01-19T07:16:26;1.34;83.39
71082;SHT31;58740;50.672;18.690;2023-01-19T07:18:54;1.35;83.39
71082;SHT31;58740;50.672;18.690;2023-01-19T07:21:22;1.33;83.45
71082;SHT31;58740;50.672;18.690;2023-01-19T07:23:50;1.33;83.50
71082;SHT31;58740;50.672;18.690;2023-01-19T07:26:19;1.34;83.52
71082;SHT31;58740;50.672;18.690;2023-01-19T07:28:48;1.33;83.67
71082;SHT31;58740;50.672;18.690;2023-01-19T07:31:17;1.35;83.67
71082;SHT31;58740;50.672;18.690;2023-01-19T07:33:45;1.39;83.68
71082;SHT31;58740;50.672;18.690;2023-01-19T07:36:13;1.43;83.60
71082;SHT31;58740;50.672;18.690;2023-01-19T07:38:41;1.42;83.65
71082;SHT31;58740;50.672;18.690;2023-01-19T07:41:09;1.41;83.65
71082;SHT31;58740;50.672;18.690;2023-01-19T07:43:37;1.42;83.65
71082;SHT31;58740;50.672;18.690;2023-01-19T07:46:05;1.41;83.61
71082;SHT31;58740;50.672;18.690;2023-01-19T07:48:34;1.39;83.68
71082;SHT31;58740;50.672;18.690;2023-01-19T07:51:03;1.41;83.71
71082;SHT31;58740;50.672;18.690;2023-01-19T07:53:39;1.44;83.65
71082;SHT31;58740;50.672;18.690;2023-01-19T07:56:08;1.48;83.60
71082;SHT31;58740;50.672;18.690;2023-01-19T07:58:37;1.52;83.54
71082;SHT31;58740;50.672;18.690;2023-01-19T08:01:10;1.54;83.43
71082;SHT31;58740;50.672;18.690;2023-01-19T08:03:39;1.53;83.31
71082;SHT31;58740;50.672;18.690;2023-01-19T08:06:10;1.50;83.41
71082;SHT31;58740;50.672;18.690;2023-01-19T08:08:49;1.46;83.46
71082;SHT31;58740;50.672;18.690;2023-01-19T08:11:17;1.42;83.49
71082;SHT31;58740;50.672;18.690;2023-01-19T08:13:45;1.36;83.58
71082;SHT31;58740;50.672;18.690;2023-01-19T08:16:13;1.34;83.75
71082;SHT31;58740;50.672;18.690;2023-01-19T08:18:40;1.35;83.83
71082;SHT31;58740;50.672;18.690;2023-01-19T08:21:08;1.39;83.81
71082;SHT31;58740;50.672;18.690;2023-01-19T08:23:36;1.39;83.74
71082;SHT31;58740;50.672;18.690;2023-01-19T08:26:17;1.42;83.81
71082;SHT31;58740;50.672;18.690;2023-01-19T08:28:57;1.47;83.71
71082;SHT31;58740;50.672;18.690;2023-01-19T08:31:28;1.46;83.60
71082;SHT31;58740;50.672;18.690;2023-01-19T08:33:57;1.45;83.56
71082;SHT31;58740;50.672;18.690;2023-01-19T08:36:25;1.44;83.66
71082;SHT31;58740;50.672;18.690;2023-01-19T08:38:53;1.43;83.58
71082;SHT31;58740;50.672;18.690;2023-01-19T08:41:21;1.43;83.52
71082;SHT31;58740;50.672;18.690;2023-01-19T08:43:49;1.41;83.32
71082;SHT31;58740;50.672;18.690;2023-01-19T08:46:17;1.39;83.37
71082;SHT31;58740;50.672;18.690;2023-01-19T08:48:47;1.39;83.35
71082;SHT31;58740;50.672;18.690;2023-01-19T08:51:16;1.39;83.36
71082;SHT31;58740;50.672;18.690;2023-01-19T08:53:45;1.41;83.33
71082;SHT31;58740;50.672;18.690;2023-01-19T08:56:15;1.38;83.25
71082;SHT31;58740;50.672;18.690;2023-01-19T08:58:45;1.37;83.35
71082;SHT31;58740;50.672;18.690;2023-01-19T09:01:29;1.35;83.38
71082;SHT31;58740;50.672;18.690;2023-01-19T09:03:57;1.36;83.37
71082;SHT31;58740;50.672;18.690;2023-01-19T09:06:25;1.38;83.50
71082;SHT31;58740;50.672;18.690;2023-01-19T09:08:54;1.43;83.42
71082;SHT31;58740;50.672;18.690;2023-01-19T09:11:22;1.46;83.40
71082;SHT31;58740;50.672;18.690;2023-01-19T09:13:50;1.47;83.32
71082;SHT31;58740;50.672;18.690;2023-01-19T09:16:17;1.48;83.42
71082;SHT31;58740;50.672;18.690;2023-01-19T09:18:45;1.50;83.39
71082;SHT31;58740;50.672;18.690;2023-01-19T09:21:14;1.49;83.32
71082;SHT31;58740;50.672;18.690;2023-01-19T09:23:42;1.47;83.35
71082;SHT31;58740;50.672;18.690;2023-01-19T09:26:10;1.47;83.39
71082;SHT31;58740;50.672;18.690;2023-01-19T09:28:38;1.46;83.35
71082;SHT31;58740;50.672;18.690;2023-01-19T09:31:07;1.48;83.42
71082;SHT31;58740;50.672;18.690;2023-01-19T09:33:35;1.51;83.40
71082;SHT31;58740;50.672;18.690;2023-01-19T09:36:03;1.52;83.24
71082;SHT31;58740;50.672;18.690;2023-01-19T09:38:32;1.54;83.14
71082;SHT31;58740;50.672;18.690;2023-01-19T09:41:00;1.51;83.09
71082;SHT31;58740;50.672;18.690;2023-01-19T09:46:14;1.45;82.96
71082;SHT31;58740;50.672;18.690;2023-01-19T09:49:15;1.39;83.01
71082;SHT31;58740;50.672;18.690;2023-01-19T09:51:49;1.37;83.16
71082;SHT31;58740;50.672;18.690;2023-01-19T09:54:40;1.40;83.23
71082;SHT31;58740;50.672;18.690;2023-01-19T09:57:12;1.42;83.18
71082;SHT31;58740;50.672;18.690;2023-01-19T09:59:41;1.44;83.12
71082;SHT31;58740;50.672;18.690;2023-01-19T10:02:17;1.46;83.08
71082;SHT31;58740;50.672;18.690;2023-01-19T10:05:24;1.45;83.21
71082;SHT31;58740;50.672;18.690;2023-01-19T10:10:56;1.47;83.17
71082;SHT31;58740;50.672;18.690;2023-01-19T10:19:40;1.58;82.95
71082;SHT31;58740;50.672;18.690;2023-01-19T10:22:11;1.57;82.91
71082;SHT31;58740;50.672;18.690;2023-01-19T10:24:55;1.55;82.99
71082;SHT31;58740;50.672;18.690;2023-01-19T10:27:31;1.55;82.99
71082;SHT31;58740;50.672;18.690;2023-01-19T10:30:01;1.54;82.94
71082;SHT31;58740;50.672;18.690;2023-01-19T10:32:32;1.54;82.91
71082;SHT31;58740;50.672;18.690;2023-01-19T10:35:05;1.56;83.00
71082;SHT31;58740;50.672;18.690;2023-01-19T10:37:48;1.61;83.01
71082;SHT31;58740;50.672;18.690;2023-01-19T10:46:20;1.72;82.74
71082;SHT31;58740;50.672;18.690;2023-01-19T10:49:00;1.69;82.54
71082;SHT31;58740;50.672;18.690;2023-01-19T10:51:29;1.67;82.58
71082;SHT31;58740;50.672;18.690;2023-01-19T10:54:01;1.64;82.61
71082;SHT31;58740;50.672;18.690;2023-01-19T10:56:34;1.63;82.62
71082;SHT31;58740;50.672;18.690;2023-01-19T10:59:05;1.66;82.74
71082;SHT31;58740;50.672;18.690;2023-01-19T11:01:33;1.68;82.52
71082;SHT31;58740;50.672;18.690;2023-01-19T11:04:26;1.71;82.50
71082;SHT31;58740;50.672;18.690;2023-01-19T11:07:09;1.70;82.41
71082;SHT31;58740;50.672;18.690;2023-01-19T11:09:47;1.69;82.37
71082;SHT31;58740;50.672;18.690;2023-01-19T11:12:20;1.65;82.33
71082;SHT31;58740;50.672;18.690;2023-01-19T11:14:50;1.63;82.46
71082;SHT31;58740;50.672;18.690;2023-01-19T11:17:21;1.64;82.57
71082;SHT31;58740;50.672;18.690;2023-01-19T11:19:53;1.64;82.58
71082;SHT31;58740;50.672;18.690;2023-01-19T11:22:32;1.68;82.63
71082;SHT31;58740;50.672;18.690;2023-01-19T11:25:00;1.70;82.58
71082;SHT31;58740;50.672;18.690;2023-01-19T11:27:33;1.72;82.35
71082;SHT31;58740;50.672;18.690;2023-01-19T11:30:06;1.74;82.45
71082;SHT31;58740;50.672;18.690;2023-01-19T11:32:44;1.77;82.44
71082;SHT31;58740;50.672;18.690;2023-01-19T11:35:30;1.77;82.25
71082;SHT31;58740;50.672;18.690;2023-01-19T11:38:06;1.74;82.13
71082;SHT31;58740;50.672;18.690;2023-01-19T11:40:39;1.70;82.22
71082;SHT31;58740;50.672;18.690;2023-01-19T11:43:17;1.69;82.39
71082;SHT31;58740;50.672;18.690;2023-01-19T11:45:48;1.69;82.39
71082;SHT31;58740;50.672;18.690;2023-01-19T11:48:22;1.71;82.39
71082;SHT31;58740;50.672;18.690;2023-01-19T11:51:03;1.75;82.39
71082;SHT31;58740;50.672;18.690;2023-01-19T11:53:39;1.74;82.23
71082;SHT31;58740;50.672;18.690;2023-01-19T11:56:15;1.70;82.01
71082;SHT31;58740;50.672;18.690;2023-01-19T11:58:48;1.66;82.20
71082;SHT31;58740;50.672;18.690;2023-01-19T12:01:18;1.70;82.40
71082;SHT31;58740;50.672;18.690;2023-01-19T12:04:05;1.75;82.20
71082;SHT31;58740;50.672;18.690;2023-01-19T12:06:48;1.75;82.18
71082;SHT31;58740;50.672;18.690;2023-01-19T12:09:22;1.77;82.08
71082;SHT31;58740;50.672;18.690;2023-01-19T12:12:01;1.78;82.12
71082;SHT31;58740;50.672;18.690;2023-01-19T12:14:37;1.81;82.23
71082;SHT31;58740;50.672;18.690;2023-01-19T12:17:34;1.78;81.74
71082;SHT31;58740;50.672;18.690;2023-01-19T12:29:11;1.75;81.54
71082;SHT31;58740;50.672;18.690;2023-01-19T12:31:43;1.70;81.40
71082;SHT31;58740;50.672;18.690;2023-01-19T12:34:55;1.69;81.55
71082;SHT31;58740;50.672;18.690;2023-01-19T12:39:55;1.63;81.65
71082;SHT31;58740;50.672;18.690;2023-01-19T12:42:28;1.63;81.74
71082;SHT31;58740;50.672;18.690;2023-01-19T12:45:06;1.61;81.82
71082;SHT31;58740;50.672;18.690;2023-01-19T12:47:48;1.62;81.89
71082;SHT31;58740;50.672;18.690;2023-01-19T12:50:20;1.60;81.98
71082;SHT31;58740;50.672;18.690;2023-01-19T12:52:53;1.60;82.02
71082;SHT31;58740;50.672;18.690;2023-01-19T12:55:25;1.61;82.05
71082;SHT31;58740;50.672;18.690;2023-01-19T13:00:44;1.58;82.01
71082;SHT31;58740;50.672;18.690;2023-01-19T13:05:53;1.58;82.08
71082;SHT31;58740;50.672;18.690;2023-01-19T13:08:23;1.59;82.01
71082;SHT31;58740;50.672;18.690;2023-01-19T13:13:34;1.61;82.03
71082;SHT31;58740;50.672;18.690;2023-01-19T13:18:47;1.59;82.03
71082;SHT31;58740;50.672;18.690;2023-01-19T13:23:57;1.54;82.34
71082;SHT31;58740;50.672;18.690;2023-01-19T13:26:34;1.53;82.41
71082;SHT31;58740;50.672;18.690;2023-01-19T13:32:01;1.58;82.46
71082;SHT31;58740;50.672;18.690;2023-01-19T13:34:53;1.64;82.52
71082;SHT31;58740;50.672;18.690;2023-01-19T13:37:31;1.70;82.47
71082;SHT31;58740;50.672;18.690;2023-01-19T13:40:14;1.71;82.35
71082;SHT31;58740;50.672;18.690;2023-01-19T13:42:48;1.70;82.40
71082;SHT31;58740;50.672;18.690;2023-01-19T13:48:01;1.67;82.45
71082;SHT31;58740;50.672;18.690;2023-01-19T13:50:35;1.68;82.56
71082;SHT31;58740;50.672;18.690;2023-01-19T13:53:20;1.69;82.51
71082;SHT31;58740;50.672;18.690;2023-01-19T13:56:14;1.70;82.50
71082;SHT31;58740;50.672;18.690;2023-01-19T13:58:55;1.73;82.53
71082;SHT31;58740;50.672;18.690;2023-01-19T14:01:44;1.75;82.46
71082;SHT31;58740;50.672;18.690;2023-01-19T14:07:05;1.70;82.53
71082;SHT31;58740;50.672;18.690;2023-01-19T14:09:41;1.68;82.63
71082;SHT31;58740;50.672;18.690;2023-01-19T14:12:12;1.65;82.69
71082;SHT31;58740;50.672;18.690;2023-01-19T14:14:44;1.66;82.79
71082;SHT31;58740;50.672;18.690;2023-01-19T14:17:37;1.70;82.77
71082;SHT31;58740;50.672;18.690;2023-01-19T14:20:03;1.75;82.74
71082;SHT31;58740;50.672;18.690;2023-01-19T14:22:36;1.81;82.78
71082;SHT31;58740;50.672;18.690;2023-01-19T14:25:26;1.86;82.56
71082;SHT31;58740;50.672;18.690;2023-01-19T14:30:56;1.86;82.53
71082;SHT31;58740;50.672;18.690;2023-01-19T14:33:34;1.88;82.57
71082;SHT31;58740;50.672;18.690;2023-01-19T14:36:54;1.86;82.51
71082;SHT31;58740;50.672;18.690;2023-01-19T14:39:12;1.87;82.59
71082;SHT31;58740;50.672;18.690;2023-01-19T14:41:49;1.89;82.57
71082;SHT31;58740;50.672;18.690;2023-01-19T14:47:19;1.97;82.35
71082;SHT31;58740;50.672;18.690;2023-01-19T14:49:56;2.00;82.32
71082;SHT31;58740;50.672;18.690;2023-01-19T14:52:35;2.00;82.26
71082;SHT31;58740;50.672;18.690;2023-01-19T14:55:21;2.01;82.26
71082;SHT31;58740;50.672;18.690;2023-01-19T14:58:16;2.01;82.18
71082;SHT31;58740;50.672;18.690;2023-01-19T15:00:47;1.98;82.19
71082;SHT31;58740;50.672;18.690;2023-01-19T15:03:28;1.95;82.05
71082;SHT31;58740;50.672;18.690;2023-01-19T15:06:14;1.96;82.16
71082;SHT31;58740;50.672;18.690;2023-01-19T15:08:47;1.96;82.12
71082;SHT31;58740;50.672;18.690;2023-01-19T15:11:19;1.99;82.13
71082;SHT31;58740;50.672;18.690;2023-01-19T15:13:53;2.04;82.16
71082;SHT31;58740;50.672;18.690;2023-01-19T15:16:22;2.07;82.09
71082;SHT31;58740;50.672;18.690;2023-01-19T15:18:51;2.10;82.00
71082;SHT31;58740;50.672;18.690;2023-01-19T15:21:20;2.11;82.03
71082;SHT31;58740;50.672;18.690;2023-01-19T15:23:53;2.12;82.00
71082;SHT31;58740;50.672;18.690;2023-01-19T15:26:22;2.09;81.97
71082;SHT31;58740;50.672;18.690;2023-01-19T15:28:52;2.03;81.87
71082;SHT31;58740;50.672;18.690;2023-01-19T15:31:22;1.99;82.00
71082;SHT31;58740;50.672;18.690;2023-01-19T15:33:52;1.97;81.99
71082;SHT31;58740;50.672;18.690;2023-01-19T15:36:20;1.98;82.05
71082;SHT31;58740;50.672;18.690;2023-01-19T15:38:51;1.97;82.03
71082;SHT31;58740;50.672;18.690;2023-01-19T15:41:21;1.97;82.04
71082;SHT31;58740;50.672;18.690;2023-01-19T15:43:52;1.93;82.08
71082;SHT31;58740;50.672;18.690;2023-01-19T15:46:21;1.91;82.19
71082;SHT31;58740;50.672;18.690;2023-01-19T15:48:52;1.90;82.16
71082;SHT31;58740;50.672;18.690;2023-01-19T15:51:21;1.88;82.26
71082;SHT31;58740;50.672;18.690;2023-01-19T15:53:52;1.87;82.30
71082;SHT31;58740;50.672;18.690;2023-01-19T15:56:22;1.88;82.34
71082;SHT31;58740;50.672;18.690;2023-01-19T15:58:57;1.89;82.30
71082;SHT31;58740;50.672;18.690;2023-01-19T16:01:27;1.90;82.31
71082;SHT31;58740;50.672;18.690;2023-01-19T16:04:02;1.92;82.32
71082;SHT31;58740;50.672;18.690;2023-01-19T16:06:33;1.96;82.37
71082;SHT31;58740;50.672;18.690;2023-01-19T16:09:01;1.97;82.28
71082;SHT31;58740;50.672;18.690;2023-01-19T16:11:30;1.95;82.16
71082;SHT31;58740;50.672;18.690;2023-01-19T16:14:00;1.94;82.26
71082;SHT31;58740;50.672;18.690;2023-01-19T16:16:28;1.91;82.21
71082;SHT31;58740;50.672;18.690;2023-01-19T16:18:56;1.90;82.30
71082;SHT31;58740;50.672;18.690;2023-01-19T16:21:24;1.92;82.30
71082;SHT31;58740;50.672;18.690;2023-01-19T16:23:53;1.95;82.30
71082;SHT31;58740;50.672;18.690;2023-01-19T16:26:25;1.96;82.35
71082;SHT31;58740;50.672;18.690;2023-01-19T16:29:01;2.03;82.38
71082;SHT31;58740;50.672;18.690;2023-01-19T16:31:37;2.07;82.18
71082;SHT31;58740;50.672;18.690;2023-01-19T16:34:07;2.07;82.10
71082;SHT31;58740;50.672;18.690;2023-01-19T16:36:37;2.05;82.01
71082;SHT31;58740;50.672;18.690;2023-01-19T16:39:09;2.01;81.95
71082;SHT31;58740;50.672;18.690;2023-01-19T16:41:40;1.94;81.92
71082;SHT31;58740;50.672;18.690;2023-01-19T16:44:10;1.90;82.01
71082;SHT31;58740;50.672;18.690;2023-01-19T16:46:44;1.89;82.08
71082;SHT31;58740;50.672;18.690;2023-01-19T16:49:20;1.91;82.19
71082;SHT31;58740;50.672;18.690;2023-01-19T16:51:50;1.93;82.10
71082;SHT31;58740;50.672;18.690;2023-01-19T16:54:21;1.91;81.87
71082;SHT31;58740;50.672;18.690;2023-01-19T16:56:55;1.88;82.00
71082;SHT31;58740;50.672;18.690;2023-01-19T16:59:24;1.88;82.09
71082;SHT31;58740;50.672;18.690;2023-01-19T17:01:53;1.87;81.96
71082;SHT31;58740;50.672;18.690;2023-01-19T17:04:23;1.83;82.03
71082;SHT31;58740;50.672;18.690;2023-01-19T17:06:53;1.82;82.09
71082;SHT31;58740;50.672;18.690;2023-01-19T17:09:21;1.82;82.07
71082;SHT31;58740;50.672;18.690;2023-01-19T17:11:49;1.81;82.07
71082;SHT31;58740;50.672;18.690;2023-01-19T17:14:17;1.82;82.11
71082;SHT31;58740;50.672;18.690;2023-01-19T17:16:49;1.84;82.18